Time,TemperatureF,DewpointF,PressureIn,WindDirection,WindDirectionDegrees,WindSpeedMPH,WindSpeedGustMPH,Humidity,HourlyPrecipIn,Conditions,Clouds,dailyrainin,SoftwareType,DateUTC
2013-08-24 00:05:00,53.2,52.0,30.18,NNE,24,0.0,1.0,96,0.00,,,0.00,weatherlink.com 1.10,2013-08-24 04:05:00,
2013-08-24 00:20:00,53.0,52.0,30.18,NNE,25,0.0,1.0,96,0.00,,,0.00,weatherlink.com 1.10,2013-08-24 04:20:00,
2013-08-24 00:36:00,52.7,52.0,30.19,NNE,24,0.0,1.0,96,0.00,,,0.00,weatherlink.com 1.10,2013-08-24 04:36:00,
2013-08-24 00:51:00,52.5,51.0,30.19,NNE,25,1.0,1.0,96,0.00,,,0.00,weatherlink.com 1.10,2013-08-24 04:51:00,
2013-08-24 01:06:00,52.1,51.0,30.19,NNE,25,0.0,1.0,96,0.00,,,0.00,weatherlink.com 1.10,2013-08-24 05:06:00,
2013-08-24 01:21:00,51.8,51.0,30.19,NNE,24,0.0,0.0,96,0.00,,,0.00,weatherlink.com 1.10,2013-08-24 05:21:00,
2013-08-24 01:36:00,51.6,51.0,30.19,NNE,24,0.0,0.0,96,0.00,,,0.00,weatherlink.com 1.10,2013-08-24 05:36:00,
2013-08-24 01:51:00,51.5,51.0,30.20,NNE,24,0.0,0.0,97,0.00,,,0.00,weatherlink.com 1.10,2013-08-24 05:51:00,
2013-08-24 02:06:00,51.1,50.0,30.20,NNE,24,0.0,0.0,97,0.00,,,0.00,weatherlink.com 1.10,2013-08-24 06:06:00,
2013-08-24 02:21:00,50.8,50.0,30.20,NNE,24,0.0,0.0,97,0.00,,,0.00,weatherlink.com 1.10,2013-08-24 06:21:00,
2013-08-24 02:36:00,50.6,50.0,30.20,NNE,24,0.0,0.0,97,0.00,,,0.00,weatherlink.com 1.10,2013-08-24 06:36:00,
2013-08-24 02:51:00,50.4,50.0,30.21,NNE,24,0.0,0.0,97,0.00,,,0.00,weatherlink.com 1.10,2013-08-24 06:51:00,
2013-08-24 03:06:00,50.1,49.0,30.21,NNE,24,0.0,0.0,97,0.00,,,0.00,weatherlink.com 1.10,2013-08-24 07:06:00,
2013-08-24 03:21:00,49.9,49.0,30.22,NNE,24,0.0,0.0,97,0.00,,,0.00,weatherlink.com 1.10,2013-08-24 07:21:00,
2013-08-24 03:36:00,49.8,49.0,30.23,NNE,24,0.0,0.0,97,0.00,,,0.00,weatherlink.com 1.10,2013-08-24 07:36:00,
2013-08-24 03:51:00,49.5,49.0,30.23,NNE,24,0.0,0.0,97,0.00,,,0.00,weatherlink.com 1.10,2013-08-24 07:51:00,
2013-08-24 04:06:00,49.3,49.0,30.24,NNE,24,0.0,0.0,97,0.00,,,0.00,weatherlink.com 1.10,2013-08-24 08:06:00,
2013-08-24 04:21:00,49.3,49.0,30.25,NNE,24,0.0,0.0,98,0.00,,,0.00,weatherlink.com 1.10,2013-08-24 08:21:00,
2013-08-24 04:36:00,48.9,48.0,30.25,NNE,24,0.0,0.0,97,0.00,,,0.00,weatherlink.com 1.10,2013-08-24 08:36:00,
2013-08-24 04:51:00,48.4,48.0,30.25,NNE,24,0.0,0.0,97,0.00,,,0.00,weatherlink.com 1.10,2013-08-24 08:51:00,
2013-08-24 05:06:00,48.4,48.0,30.26,NNE,24,0.0,0.0,98,0.00,,,0.00,weatherlink.com 1.10,2013-08-24 09:06:00,
2013-08-24 05:21:00,48.2,48.0,30.27,NNE,25,0.0,0.0,98,0.00,,,0.00,weatherlink.com 1.10,2013-08-24 09:21:00,
2013-08-24 05:36:00,47.9,47.0,30.27,NNE,24,0.0,0.0,98,0.00,,,0.00,weatherlink.com 1.10,2013-08-24 09:36:00,
2013-08-24 05:51:00,47.7,47.0,30.27,NNE,24,0.0,0.0,98,0.00,,,0.00,weatherlink.com 1.10,2013-08-24 09:51:00,
2013-08-24 06:06:00,47.6,47.0,30.28,NNE,24,0.0,1.0,98,0.00,,,0.00,weatherlink.com 1.10,2013-08-24 10:06:00,
2013-08-24 06:21:00,47.4,47.0,30.29,NNE,24,0.0,1.0,98,0.00,,,0.00,weatherlink.com 1.10,2013-08-24 10:21:00,
2013-08-24 06:36:00,47.5,47.0,30.30,NNE,25,0.0,1.0,98,0.00,,,0.00,weatherlink.com 1.10,2013-08-24 10:36:00,
2013-08-24 06:51:00,48.0,48.0,30.30,NNE,25,0.0,0.0,98,0.00,,,0.00,weatherlink.com 1.10,2013-08-24 10:51:00,
2013-08-24 07:06:00,48.8,48.0,30.30,NNE,24,0.0,0.0,98,0.00,,,0.00,weatherlink.com 1.10,2013-08-24 11:06:00,
2013-08-24 07:21:00,50.1,50.0,30.31,NNE,25,0.0,0.0,99,0.00,,,0.00,weatherlink.com 1.10,2013-08-24 11:21:00,
2013-08-24 07:37:00,51.6,51.0,30.31,NNE,25,0.0,1.0,99,0.01,,,0.01,weatherlink.com 1.10,2013-08-24 11:37:00,
2013-08-24 07:52:00,53.2,53.0,30.32,ESE,122,0.0,1.0,99,0.01,,,0.01,weatherlink.com 1.10,2013-08-24 11:52:00,
2013-08-24 08:07:00,54.1,54.0,30.32,NE,44,0.0,1.0,99,0.01,,,0.01,weatherlink.com 1.10,2013-08-24 12:07:00,
2013-08-24 08:22:00,54.7,55.0,30.32,NE,49,0.0,1.0,99,0.01,,,0.01,weatherlink.com 1.10,2013-08-24 12:22:00,
2013-08-24 08:37:00,55.6,55.0,30.32,SE,141,1.0,4.0,98,0.00,,,0.01,weatherlink.com 1.10,2013-08-24 12:37:00,
2013-08-24 08:52:00,56.9,56.0,30.32,SW,217,1.0,4.0,98,0.00,,,0.01,weatherlink.com 1.10,2013-08-24 12:52:00,
2013-08-24 09:07:00,59.3,59.0,30.32,SSE,167,1.0,2.0,97,0.00,,,0.01,weatherlink.com 1.10,2013-08-24 13:07:00,
2013-08-24 09:22:00,61.9,58.0,30.32,SSE,163,2.0,3.0,88,0.00,,,0.01,weatherlink.com 1.10,2013-08-24 13:22:00,
2013-08-24 09:37:00,63.2,59.0,30.33,SE,143,1.0,4.0,86,0.00,,,0.01,weatherlink.com 1.10,2013-08-24 13:37:00,
2013-08-24 09:52:00,64.3,58.0,30.33,SE,143,1.0,5.0,80,0.00,,,0.01,weatherlink.com 1.10,2013-08-24 13:52:00,
2013-08-24 10:07:00,65.9,57.0,30.33,East,96,3.0,3.0,73,0.00,,,0.01,weatherlink.com 1.10,2013-08-24 14:07:00,
2013-08-24 10:22:00,66.1,56.0,30.33,East,87,0.0,6.0,70,0.00,,,0.01,weatherlink.com 1.10,2013-08-24 14:22:00,
2013-08-24 10:37:00,66.7,56.0,30.33,East,95,0.0,6.0,69,0.00,,,0.01,weatherlink.com 1.10,2013-08-24 14:37:00,
2013-08-24 10:52:00,68.2,56.0,30.32,SE,125,3.0,5.0,66,0.00,,,0.01,weatherlink.com 1.10,2013-08-24 14:52:00,
2013-08-24 11:07:00,69.3,54.0,30.32,ESE,111,3.0,5.0,59,0.00,,,0.01,weatherlink.com 1.10,2013-08-24 15:07:00,
2013-08-24 11:22:00,69.7,53.0,30.32,East,92,4.0,8.0,56,0.00,,,0.01,weatherlink.com 1.10,2013-08-24 15:22:00,
2013-08-24 11:37:00,71.6,54.0,30.32,ENE,78,7.0,7.0,55,0.00,,,0.01,weatherlink.com 1.10,2013-08-24 15:37:00,
2013-08-24 11:52:00,71.4,51.0,30.32,SE,132,6.0,8.0,48,0.00,,,0.01,weatherlink.com 1.10,2013-08-24 15:52:00,
2013-08-24 12:07:00,71.4,48.0,30.31,SSW,195,2.0,10.0,44,0.00,,,0.01,weatherlink.com 1.10,2013-08-24 16:07:00,
2013-08-24 12:22:00,72.5,47.0,30.31,East,80,1.0,8.0,41,0.00,,,0.01,weatherlink.com 1.10,2013-08-24 16:22:00,
2013-08-24 12:37:00,72.6,47.0,30.31,ESE,122,2.0,8.0,41,0.00,,,0.01,weatherlink.com 1.10,2013-08-24 16:37:00,
2013-08-24 12:52:00,73.2,51.0,30.30,ENE,75,3.0,8.0,46,0.00,,,0.01,weatherlink.com 1.10,2013-08-24 16:52:00,
2013-08-24 13:07:00,73.5,51.0,30.30,ESE,104,6.0,9.0,45,0.00,,,0.01,weatherlink.com 1.10,2013-08-24 17:07:00,
2013-08-24 13:22:00,74.0,51.0,30.30,SE,140,2.0,8.0,44,0.00,,,0.01,weatherlink.com 1.10,2013-08-24 17:22:00,
2013-08-24 13:38:00,74.1,50.0,30.30,ENE,63,3.0,8.0,43,0.00,,,0.01,weatherlink.com 1.10,2013-08-24 17:38:00,
2013-08-24 13:53:00,74.7,52.0,30.29,ESE,120,1.0,10.0,46,0.00,,,0.01,weatherlink.com 1.10,2013-08-24 17:53:00,
2013-08-24 14:08:00,75.2,50.0,30.29,East,97,3.0,12.0,42,0.00,,,0.01,weatherlink.com 1.10,2013-08-24 18:08:00,
2013-08-24 14:23:00,75.6,51.0,30.29,NE,49,3.0,9.0,42,0.00,,,0.01,weatherlink.com 1.10,2013-08-24 18:23:00,
2013-08-24 14:38:00,75.8,50.0,30.28,NE,39,2.0,8.0,41,0.00,,,0.01,weatherlink.com 1.10,2013-08-24 18:38:00,
2013-08-24 14:53:00,76.5,52.0,30.28,SE,138,3.0,7.0,42,0.00,,,0.01,weatherlink.com 1.10,2013-08-24 18:53:00,
2013-08-24 15:08:00,76.8,52.0,30.27,ESE,106,2.0,8.0,42,0.00,,,0.01,weatherlink.com 1.10,2013-08-24 19:08:00,
2013-08-24 15:23:00,76.9,52.0,30.27,ENE,75,2.0,7.0,42,0.00,,,0.01,weatherlink.com 1.10,2013-08-24 19:23:00,
2013-08-24 15:38:00,76.5,50.0,30.27,East,90,8.0,9.0,40,0.00,,,0.01,weatherlink.com 1.10,2013-08-24 19:38:00,
2013-08-24 15:53:00,77.1,50.0,30.27,NNE,20,0.0,7.0,39,0.00,,,0.01,weatherlink.com 1.10,2013-08-24 19:53:00,
2013-08-24 16:08:00,77.4,50.0,30.27,NNE,23,2.0,6.0,39,0.00,,,0.01,weatherlink.com 1.10,2013-08-24 20:08:00,
2013-08-24 16:23:00,77.5,50.0,30.26,East,86,3.0,6.0,38,0.00,,,0.01,weatherlink.com 1.10,2013-08-24 20:23:00,
2013-08-24 16:38:00,78.0,50.0,30.26,ESE,117,0.0,4.0,38,0.00,,,0.01,weatherlink.com 1.10,2013-08-24 20:38:00,
2013-08-24 16:53:00,78.2,50.0,30.26,SSE,149,2.0,5.0,37,0.00,,,0.01,weatherlink.com 1.10,2013-08-24 20:53:00,
2013-08-24 17:08:00,78.1,50.0,30.26,SSE,155,1.0,4.0,37,0.00,,,0.01,weatherlink.com 1.10,2013-08-24 21:08:00,
2013-08-24 17:23:00,78.7,52.0,30.26,NE,39,1.0,6.0,39,0.00,,,0.01,weatherlink.com 1.10,2013-08-24 21:23:00,
2013-08-24 17:38:00,77.7,50.0,30.25,ENE,60,0.0,3.0,38,0.00,,,0.01,weatherlink.com 1.10,2013-08-24 21:38:00,
2013-08-24 17:53:00,77.8,52.0,30.25,ENE,76,0.0,3.0,40,0.00,,,0.01,weatherlink.com 1.10,2013-08-24 21:53:00,
2013-08-24 18:08:00,76.0,53.0,30.25,ENE,70,1.0,2.0,45,0.00,,,0.01,weatherlink.com 1.10,2013-08-24 22:08:00,
2013-08-24 18:23:00,74.6,53.0,30.26,NNE,28,1.0,2.0,47,0.00,,,0.01,weatherlink.com 1.10,2013-08-24 22:23:00,
2013-08-24 18:38:00,73.1,55.0,30.25,NE,49,1.0,3.0,53,0.00,,,0.01,weatherlink.com 1.10,2013-08-24 22:38:00,
2013-08-24 18:53:00,70.7,56.0,30.26,NNE,29,0.0,2.0,60,0.00,,,0.01,weatherlink.com 1.10,2013-08-24 22:53:00,
2013-08-24 19:08:00,69.2,57.0,30.26,NNE,28,0.0,0.0,65,0.00,,,0.01,weatherlink.com 1.10,2013-08-24 23:08:00,
2013-08-24 19:23:00,67.6,57.0,30.27,NNE,30,0.0,0.0,68,0.00,,,0.01,weatherlink.com 1.10,2013-08-24 23:23:00,
2013-08-24 19:38:00,65.7,57.0,30.27,NNE,26,0.0,0.0,74,0.00,,,0.01,weatherlink.com 1.10,2013-08-24 23:38:00,
2013-08-24 19:53:00,64.2,58.0,30.27,NNE,30,0.0,0.0,79,0.00,,,0.01,weatherlink.com 1.10,2013-08-24 23:53:00,
2013-08-24 20:08:00,63.0,57.0,30.28,NNE,30,0.0,0.0,80,0.00,,,0.01,weatherlink.com 1.10,2013-08-25 00:08:00,
2013-08-24 20:23:00,62.0,56.0,30.28,NNE,30,0.0,0.0,82,0.00,,,0.01,weatherlink.com 1.10,2013-08-25 00:23:00,
2013-08-24 20:38:00,60.9,56.0,30.29,NNE,30,0.0,0.0,83,0.00,,,0.01,weatherlink.com 1.10,2013-08-25 00:38:00,
2013-08-24 20:53:00,59.8,55.0,30.30,NNE,30,0.0,0.0,85,0.00,,,0.01,weatherlink.com 1.10,2013-08-25 00:53:00,
2013-08-24 21:08:00,58.9,55.0,30.30,NNE,30,0.0,0.0,86,0.00,,,0.01,weatherlink.com 1.10,2013-08-25 01:08:00,
2013-08-24 21:23:00,58.3,54.0,30.31,NNE,30,0.0,0.0,86,0.00,,,0.01,weatherlink.com 1.10,2013-08-25 01:23:00,
2013-08-24 21:38:00,57.6,54.0,30.31,NNE,30,0.0,0.0,88,0.00,,,0.01,weatherlink.com 1.10,2013-08-25 01:38:00,
2013-08-24 21:53:00,57.0,54.0,30.32,NNE,30,0.0,0.0,90,0.00,,,0.01,weatherlink.com 1.10,2013-08-25 01:53:00,
2013-08-24 22:08:00,56.5,54.0,30.32,NNE,30,0.0,0.0,91,0.00,,,0.01,weatherlink.com 1.10,2013-08-25 02:08:00,
2013-08-24 22:23:00,56.1,54.0,30.32,NNE,30,0.0,0.0,92,0.00,,,0.01,weatherlink.com 1.10,2013-08-25 02:23:00,
2013-08-24 22:38:00,55.6,53.0,30.32,NNE,30,0.0,0.0,92,0.00,,,0.01,weatherlink.com 1.10,2013-08-25 02:38:00,
2013-08-24 22:53:00,55.2,53.0,30.32,NNE,30,0.0,0.0,93,0.00,,,0.01,weatherlink.com 1.10,2013-08-25 02:53:00,
2013-08-24 23:08:00,54.9,53.0,30.32,NNE,30,0.0,0.0,93,0.00,,,0.01,weatherlink.com 1.10,2013-08-25 03:08:00,
2013-08-24 23:23:00,54.6,53.0,30.32,NNE,30,0.0,0.0,94,0.00,,,0.01,weatherlink.com 1.10,2013-08-25 03:23:00,
2013-08-24 23:38:00,54.1,53.0,30.32,NNE,30,0.0,0.0,94,0.00,,,0.01,weatherlink.com 1.10,2013-08-25 03:38:00,
2013-08-24 23:53:00,53.8,52.0,30.32,NNE,30,0.0,0.0,94,0.00,,,0.01,weatherlink.com 1.10,2013-08-25 03:53:00,